Time;durP1;ratioP1;P1;durP2;ratioP2;P2;SDS_P1;SDS_P2;PMS_P1;PMS_P2;Temp;Humidity;BMP_temperature;BMP_pressure;BME280_temperature;BME280_humidity;BME280_pressure;Samples;Min_cycle;Max_cycle;Signal;HPM_P1;HPM_P2
2023/05/20 00:01:01;;;;;;;10.07;4.80;;;;;;;14.51;55.09;102242.41;5072451;28;20020;-63
2023/05/20 00:03:26;;;;;;;11.52;4.80;;;;;;;14.49;54.89;102243.41;5072260;28;20488;-62
2023/05/20 00:05:54;;;;;;;6.45;4.20;;;;;;;14.49;55.36;102236.22;5071797;28;20479;-62
2023/05/20 00:08:19;;;;;;;7.03;4.75;;;;;;;14.60;55.27;102229.44;5053368;28;20119;-63
2023/05/20 00:10:45;;;;;;;9.77;5.20;;;;;;;14.45;55.87;102228.47;5070504;28;20032;-62
2023/05/20 00:13:10;;;;;;;8.63;5.03;;;;;;;14.48;55.96;102221.13;5070796;28;20166;-62
2023/05/20 00:15:38;;;;;;;13.68;4.80;;;;;;;14.52;55.63;102232.56;5071885;28;20115;-62
2023/05/20 00:18:03;;;;;;;10.43;4.95;;;;;;;14.56;55.41;102231.44;5070223;28;20025;-62
2023/05/20 00:20:29;;;;;;;9.85;5.32;;;;;;;14.51;55.74;102230.81;5070622;28;20017;-62
2023/05/20 00:22:55;;;;;;;7.13;4.75;;;;;;;14.47;56.07;102237.25;5070074;28;20020;-62
2023/05/20 00:25:20;;;;;;;7.65;4.80;;;;;;;14.53;56.18;102242.31;5104871;28;20029;-62
2023/05/20 00:27:46;;;;;;;8.88;4.72;;;;;;;14.55;56.07;102243.09;5071873;28;20044;-62
2023/05/20 00:30:11;;;;;;;7.97;4.68;;;;;;;14.48;56.48;102239.00;5072286;28;20024;-62
2023/05/20 00:32:37;;;;;;;8.25;5.03;;;;;;;14.32;56.97;102239.88;5070594;28;20027;-62
2023/05/20 00:35:03;;;;;;;9.13;4.75;;;;;;;14.27;57.92;102233.06;5072119;28;20110;-62
2023/05/20 00:37:28;;;;;;;11.43;4.93;;;;;;;14.30;58.06;102235.56;5071352;28;20035;-62
2023/05/20 00:39:54;;;;;;;14.73;5.53;;;;;;;14.24;57.82;102227.88;5071722;28;20095;-62
2023/05/20 00:42:24;;;;;;;8.32;5.22;;;;;;;14.14;58.74;102230.19;5071684;28;20044;-62
2023/05/20 00:44:52;;;;;;;9.80;5.35;;;;;;;14.23;58.32;102235.03;5071431;28;20034;-62
2023/05/20 00:47:21;;;;;;;9.23;4.80;;;;;;;14.04;58.79;102227.19;5069538;28;20381;-62
2023/05/20 00:49:48;;;;;;;11.38;5.18;;;;;;;14.07;58.63;102218.97;5070117;28;20056;-62
2023/05/20 00:52:17;;;;;;;11.10;4.72;;;;;;;14.09;59.27;102232.28;5069875;28;20032;-62
2023/05/20 00:54:43;;;;;;;12.82;5.38;;;;;;;14.13;58.66;102231.16;5071756;28;20021;-62
2023/05/20 00:57:10;;;;;;;11.27;5.13;;;;;;;14.12;59.01;102223.19;5070452;28;20028;-62
2023/05/20 00:59:38;;;;;;;8.82;5.45;;;;;;;14.18;58.77;102223.75;5070367;28;20013;-62
2023/05/20 01:02:04;;;;;;;11.70;5.60;;;;;;;13.97;59.47;102222.25;5103987;28;20028;-62
2023/05/20 01:04:31;;;;;;;9.63;5.22;;;;;;;13.94;59.52;102222.41;5071846;28;20020;-62
2023/05/20 01:07:03;;;;;;;10.20;5.43;;;;;;;13.96;60.39;102221.38;5069788;28;20052;-62
2023/05/20 01:09:30;;;;;;;8.43;5.47;;;;;;;13.90;59.94;102215.50;5070445;28;20028;-62
2023/05/20 01:12:29;;;;;;;9.95;5.20;;;;;;;13.92;59.86;102222.50;5071543;28;20137;-62
2023/05/20 01:15:02;;;;;;;12.63;5.32;;;;;;;13.90;59.81;102216.38;5054133;28;20055;-62
2023/05/20 01:17:31;;;;;;;11.75;5.47;;;;;;;13.74;60.75;102213.69;5074253;28;20032;-62
2023/05/20 01:19:58;;;;;;;7.35;5.13;;;;;;;13.75;60.75;102220.75;5108166;28;20012;-62
2023/05/20 01:22:26;;;;;;;9.07;5.63;;;;;;;13.80;61.05;102216.03;5074693;28;20522;-62
2023/05/20 01:24:54;;;;;;;11.40;5.93;;;;;;;13.83;60.70;102212.31;5074001;28;20027;-62
2023/05/20 01:27:22;;;;;;;8.93;5.82;;;;;;;13.74;60.89;102220.84;5108124;28;20028;-62
2023/05/20 01:29:51;;;;;;;11.98;6.25;;;;;;;13.71;60.97;102215.66;5074301;28;20024;-62
2023/05/20 01:32:22;;;;;;;12.07;6.45;;;;;;;13.44;61.91;102220.66;5107994;28;20036;-62
2023/05/20 01:34:50;;;;;;;9.30;6.38;;;;;;;13.53;62.26;102212.16;5073456;28;20035;-62
2023/05/20 01:37:17;;;;;;;10.02;5.75;;;;;;;13.45;61.89;102212.59;5107372;28;20020;-62
2023/05/20 01:39:43;;;;;;;10.95;6.03;;;;;;;13.43;62.00;102206.44;5074017;28;20112;-62
2023/05/20 01:42:10;;;;;;;12.10;5.80;;;;;;;13.49;62.11;102208.78;5073732;28;20131;-62
2023/05/20 01:44:36;;;;;;;13.50;5.78;;;;;;;13.46;62.08;102205.41;5107905;28;20024;-62
2023/05/20 01:47:02;;;;;;;8.60;5.90;;;;;;;13.41;62.80;102197.63;5073037;28;20526;-62
2023/05/20 01:49:27;;;;;;;9.90;5.72;;;;;;;13.59;61.91;102203.84;5072938;28;20055;-62
2023/05/20 01:51:56;;;;;;;11.18;6.13;;;;;;;13.50;62.41;102199.84;5074094;28;20165;-62
2023/05/20 01:54:21;;;;;;;8.43;5.82;;;;;;;13.50;62.19;102204.31;5074911;28;20099;-62
2023/05/20 01:56:47;;;;;;;10.15;6.13;;;;;;;13.28;63.32;102194.75;5074328;28;20162;-63
2023/05/20 01:59:12;;;;;;;12.18;5.53;;;;;;;13.37;62.76;102199.63;5073156;28;20123;-62
2023/05/20 02:01:37;;;;;;;12.82;5.95;;;;;;;13.36;63.08;102203.25;5074303;28;20407;-62
2023/05/20 02:04:03;;;;;;;10.07;4.97;;;;;;;13.25;63.74;102192.25;5074200;28;20116;-62
2023/05/20 02:06:29;;;;;;;11.30;5.95;;;;;;;13.16;63.27;102198.06;5073805;28;20387;-62
2023/05/20 02:08:54;;;;;;;7.93;5.53;;;;;;;13.27;63.58;102192.19;5074218;28;20044;-62
2023/05/20 02:11:20;;;;;;;11.10;6.30;;;;;;;13.21;63.35;102187.09;5074377;28;20028;-62
2023/05/20 02:13:45;;;;;;;11.68;6.03;;;;;;;13.07;64.04;102185.19;5071310;28;20039;-63
2023/05/20 02:16:11;;;;;;;13.63;6.32;;;;;;;13.09;64.27;102185.97;5072858;28;20025;-62
2023/05/20 02:18:39;;;;;;;12.00;6.18;;;;;;;12.98;64.79;102185.66;5073861;28;20383;-62
2023/05/20 02:21:04;;;;;;;10.18;6.10;;;;;;;13.02;64.56;102192.56;5073443;28;20028;-62
2023/05/20 02:23:32;;;;;;;11.35;5.88;;;;;;;13.14;64.38;102203.47;5072527;28;20024;-62
2023/05/20 02:26:01;;;;;;;9.65;6.05;;;;;;;12.96;65.18;102189.25;5074388;28;20479;-62
2023/05/20 02:28:26;;;;;;;12.85;6.30;;;;;;;12.96;65.10;102185.72;5073817;28;20029;-63
2023/05/20 02:30:51;;;;;;;10.57;6.07;;;;;;;13.01;65.08;102178.34;5072736;28;20028;-62
2023/05/20 02:33:18;;;;;;;10.55;5.82;;;;;;;12.92;65.50;102182.34;5072462;28;20025;-62
2023/05/20 02:35:43;;;;;;;11.30;6.60;;;;;;;12.85;65.82;102172.06;5072800;28;20020;-62
2023/05/20 02:38:11;;;;;;;12.07;6.03;;;;;;;12.84;65.55;102165.84;5073704;28;20127;-62
2023/05/20 02:40:37;;;;;;;7.97;5.70;;;;;;;12.78;66.17;102186.69;5073594;28;20060;-62
2023/05/20 02:43:05;;;;;;;11.07;6.20;;;;;;;12.85;66.02;102178.28;5073234;28;20033;-62
2023/05/20 02:45:30;;;;;;;13.65;6.32;;;;;;;12.79;66.62;102181.25;5073900;28;20039;-62
2023/05/20 02:47:56;;;;;;;11.40;6.68;;;;;;;12.78;66.50;102184.00;5073288;28;20028;-62
2023/05/20 02:50:21;;;;;;;13.43;6.80;;;;;;;12.56;67.26;102177.09;5072408;28;20039;-63
2023/05/20 02:52:47;;;;;;;10.77;5.82;;;;;;;12.64;67.16;102182.03;5073151;28;20388;-63
2023/05/20 02:55:13;;;;;;;12.32;5.97;;;;;;;12.79;66.51;102178.56;5073802;28;20024;-62
2023/05/20 02:57:38;;;;;;;10.02;6.43;;;;;;;12.71;66.64;102170.97;5072372;28;20043;-63
2023/05/20 03:00:06;;;;;;;11.73;6.65;;;;;;;12.75;66.91;102168.13;5072075;28;20499;-62
2023/05/20 03:02:33;;;;;;;10.00;6.35;;;;;;;12.50;67.49;102180.94;5073382;28;20031;-62
2023/05/20 03:04:59;;;;;;;9.88;5.82;;;;;;;12.66;67.32;102175.66;5073296;28;20028;-62
2023/05/20 03:07:24;;;;;;;8.68;6.25;;;;;;;12.68;67.42;102171.13;5073138;28;20021;-62
2023/05/20 03:09:52;;;;;;;12.38;6.82;;;;;;;12.70;67.10;102173.69;5072228;28;20052;-62
2023/05/20 03:12:18;;;;;;;11.93;7.00;;;;;;;12.68;66.92;102165.78;5072082;28;20056;-62
2023/05/20 03:14:43;;;;;;;12.80;6.80;;;;;;;12.66;67.40;102180.16;5073439;28;20059;-62
2023/05/20 03:17:10;;;;;;;11.02;6.55;;;;;;;12.56;67.84;102178.88;5072547;28;20119;-62
2023/05/20 03:19:36;;;;;;;15.48;7.00;;;;;;;12.44;68.82;102169.66;5073376;28;20020;-62
2023/05/20 03:22:01;;;;;;;10.00;6.25;;;;;;;12.39;68.63;102167.25;5072483;28;20073;-62
2023/05/20 03:24:28;;;;;;;11.63;6.10;;;;;;;12.36;68.97;102172.72;5105640;28;20056;-62
2023/05/20 03:26:53;;;;;;;10.25;6.53;;;;;;;12.33;68.81;102174.69;5073045;28;20036;-63
2023/05/20 03:29:18;;;;;;;11.73;6.82;;;;;;;12.46;68.61;102171.31;5105840;28;20433;-63
2023/05/20 03:31:44;;;;;;;12.32;6.57;;;;;;;12.49;68.37;102170.31;5072178;28;20052;-62
2023/05/20 03:34:10;;;;;;;11.45;6.30;;;;;;;12.27;69.08;102175.84;5071949;28;20398;-62
2023/05/20 03:36:35;;;;;;;11.77;6.65;;;;;;;12.24;70.03;102178.69;5071353;28;20522;-62
2023/05/20 03:39:01;;;;;;;12.05;6.65;;;;;;;12.23;69.86;102174.25;5071048;28;20043;-62
2023/05/20 03:41:27;;;;;;;12.25;6.78;;;;;;;12.24;69.40;102176.88;5105520;28;20136;-62
2023/05/20 03:43:55;;;;;;;12.57;6.95;;;;;;;12.21;69.79;102177.03;5105524;28;20017;-62
2023/05/20 03:46:20;;;;;;;10.85;6.75;;;;;;;12.21;69.86;102173.50;5072451;28;20023;-62
2023/05/20 03:48:45;;;;;;;14.98;7.38;;;;;;;12.25;69.66;102175.06;5072683;28;20024;-62
2023/05/20 03:51:11;;;;;;;12.38;7.38;;;;;;;12.05;70.54;102157.34;5072913;28;20028;-62
2023/05/20 03:53:36;;;;;;;10.93;6.95;;;;;;;12.13;70.50;102173.00;5072092;28;20038;-62
2023/05/20 03:56:04;;;;;;;12.73;6.75;;;;;;;12.01;71.12;102169.13;5071280;28;20028;-62
2023/05/20 03:58:30;;;;;;;14.45;6.57;;;;;;;12.17;70.76;102166.56;5072518;28;20047;-62
2023/05/20 04:00:55;;;;;;;10.02;6.57;;;;;;;12.01;71.53;102166.44;5071639;28;20071;-62
2023/05/20 04:03:21;;;;;;;9.65;7.00;;;;;;;12.14;71.26;102162.22;5071757;28;20111;-63
2023/05/20 04:05:49;;;;;;;10.52;6.78;;;;;;;12.11;71.21;102167.72;5070617;28;20459;-62
2023/05/20 04:08:15;;;;;;;13.07;7.53;;;;;;;12.19;71.17;102167.34;5071793;28;20052;-62
2023/05/20 04:10:43;;;;;;;12.05;6.80;;;;;;;12.14;71.35;102170.22;5072764;28;20071;-62
2023/05/20 04:13:10;;;;;;;9.90;7.20;;;;;;;11.98;72.23;102182.59;5072206;28;20483;-62
2023/05/20 04:15:37;;;;;;;10.20;6.65;;;;;;;12.13;71.43;102173.84;5070221;28;20552;-62
2023/05/20 04:18:09;;;;;;;14.70;7.35;;;;;;;12.01;72.35;102167.31;5071346;28;20036;-62
2023/05/20 04:20:34;;;;;;;15.18;7.00;;;;;;;12.13;71.88;102178.31;5072224;28;20033;-62
2023/05/20 04:23:02;;;;;;;12.75;7.63;;;;;;;12.13;72.17;102165.00;5104133;28;20134;-62
2023/05/20 04:25:28;;;;;;;9.73;7.10;;;;;;;12.17;72.19;102172.75;5103478;28;20032;-62
2023/05/20 04:27:53;;;;;;;12.15;7.13;;;;;;;12.18;72.14;102177.16;5071025;28;20029;-62
2023/05/20 04:30:20;;;;;;;13.30;7.15;;;;;;;12.16;72.66;102173.69;5069321;28;20036;-62
2023/05/20 04:32:47;;;;;;;12.57;7.72;;;;;;;12.21;72.86;102181.50;5069262;28;20277;-62
2023/05/20 04:35:13;;;;;;;13.60;6.88;;;;;;;12.27;71.67;102175.84;5071608;28;20024;-62
2023/05/20 04:37:39;;;;;;;10.10;6.88;;;;;;;12.20;72.15;102177.94;5069498;28;20044;-62
2023/05/20 04:40:05;;;;;;;11.90;7.25;;;;;;;12.19;72.92;102175.34;5070282;28;20117;-62
2023/05/20 04:42:32;;;;;;;9.93;7.75;;;;;;;12.26;72.21;102171.44;5068685;28;20078;-62
2023/05/20 04:45:00;;;;;;;13.27;7.32;;;;;;;12.26;72.21;102172.34;5070418;28;20597;-62
2023/05/20 04:47:27;;;;;;;12.60;6.55;;;;;;;12.40;72.31;102173.44;5068485;28;20025;-62
2023/05/20 04:49:56;;;;;;;11.95;6.70;;;;;;;12.39;72.13;102167.25;5070557;28;20028;-62
2023/05/20 04:52:24;;;;;;;12.73;7.13;;;;;;;12.56;71.29;102170.84;5071239;28;20399;-62
2023/05/20 04:54:52;;;;;;;9.38;6.75;;;;;;;12.42;72.23;102176.91;5070511;28;20024;-62
2023/05/20 04:57:19;;;;;;;11.25;7.13;;;;;;;12.47;71.94;102180.19;5071023;28;20043;-62
2023/05/20 04:59:46;;;;;;;16.65;7.72;;;;;;;12.56;71.52;102177.09;5071717;28;20020;-63
2023/05/20 05:02:11;;;;;;;12.75;7.53;;;;;;;12.68;71.66;102178.28;5070047;28;20111;-62
2023/05/20 05:04:36;;;;;;;9.93;7.25;;;;;;;12.70;71.20;102177.22;5071710;28;20123;-62
2023/05/20 05:07:02;;;;;;;13.82;7.07;;;;;;;12.55;72.17;102170.00;5069719;28;20128;-62
2023/05/20 05:09:28;;;;;;;11.77;7.13;;;;;;;12.61;71.76;102172.34;5071612;28;20028;-62
2023/05/20 05:11:53;;;;;;;10.73;7.95;;;;;;;12.66;72.06;102166.81;5071083;28;20037;-62
2023/05/20 05:14:22;;;;;;;13.02;8.02;;;;;;;12.73;71.68;102161.09;5070351;28;20507;-62
2023/05/20 05:16:53;;;;;;;11.25;7.15;;;;;;;12.73;71.98;102161.09;5070269;28;20024;-62
2023/05/20 05:19:18;;;;;;;13.00;7.18;;;;;;;12.78;71.69;102160.84;5071744;28;20383;-62
2023/05/20 05:21:46;;;;;;;8.93;6.95;;;;;;;12.87;71.29;102157.69;5071037;28;20032;-62
2023/05/20 05:24:11;;;;;;;11.70;7.00;;;;;;;12.86;72.15;102166.66;5070423;28;20037;-62
2023/05/20 05:26:37;;;;;;;12.02;7.32;;;;;;;12.93;71.73;102159.19;5069903;28;20025;-62
2023/05/20 05:29:02;;;;;;;13.88;7.20;;;;;;;12.93;71.05;102161.84;5070112;28;20062;-62
2023/05/20 05:31:27;;;;;;;10.45;7.38;;;;;;;13.00;71.02;102157.03;5071427;28;20028;-62
2023/05/20 05:33:53;;;;;;;11.23;6.70;;;;;;;13.07;70.70;102172.69;5071564;28;20032;-62
2023/05/20 05:36:18;;;;;;;10.32;6.95;;;;;;;12.93;71.48;102162.72;5070100;28;20410;-62
2023/05/20 05:38:44;;;;;;;12.05;6.93;;;;;;;13.09;70.58;102161.94;5071219;28;20008;-62
2023/05/20 05:41:09;;;;;;;8.00;6.82;;;;;;;13.15;70.56;102159.78;5069760;28;20135;-62
2023/05/20 05:43:35;;;;;;;10.38;7.18;;;;;;;13.27;70.06;102154.78;5071407;28;20073;-62
2023/05/20 05:46:00;;;;;;;13.80;6.72;;;;;;;13.33;69.88;102149.09;5069899;28;20464;-62
2023/05/20 05:48:26;;;;;;;11.88;7.20;;;;;;;13.35;69.75;102145.41;5070066;28;20033;-62
2023/05/20 05:50:51;;;;;;;15.13;7.60;;;;;;;13.44;69.79;102162.72;5071435;28;20032;-62
2023/05/20 05:53:19;;;;;;;11.00;7.45;;;;;;;13.49;69.26;102165.16;5071220;28;20016;-62
2023/05/20 05:55:50;;;;;;;12.18;7.38;;;;;;;13.59;69.53;102155.72;5069527;28;20062;-62
2023/05/20 05:58:16;;;;;;;9.80;6.95;;;;;;;13.64;69.52;102158.97;5069864;28;20475;-62
2023/05/20 06:00:41;;;;;;;11.25;6.70;;;;;;;13.71;69.43;102159.53;5071442;28;20533;-62
2023/05/20 06:03:07;;;;;;;8.98;6.75;;;;;;;13.82;68.34;102163.31;5072788;28;20028;-62
2023/05/20 06:05:35;;;;;;;11.50;6.55;;;;;;;13.90;68.03;102165.56;5074808;28;20021;-62
2023/05/20 06:08:01;;;;;;;10.57;7.13;;;;;;;13.99;68.07;102161.50;5074004;28;20431;-62
2023/05/20 06:10:29;;;;;;;8.88;6.40;;;;;;;14.05;67.30;102161.16;5074371;28;20024;-62
2023/05/20 06:12:54;;;;;;;14.35;7.28;;;;;;;14.08;67.31;102159.16;5073106;28;20533;-62
2023/05/20 06:15:19;;;;;;;15.70;7.30;;;;;;;14.11;67.25;102149.25;5074806;28;20032;-62
2023/05/20 06:17:45;;;;;;;13.15;6.95;;;;;;;14.23;67.29;102151.22;5074662;28;20025;-62
2023/05/20 06:20:13;;;;;;;10.50;6.43;;;;;;;14.39;67.10;102148.53;5074776;28;20017;-62
2023/05/20 06:22:38;;;;;;;11.90;6.50;;;;;;;14.39;66.53;102145.84;5074111;28;20116;-62
2023/05/20 06:25:06;;;;;;;9.95;6.70;;;;;;;14.49;65.87;102145.19;5074178;28;20494;-62
2023/05/20 06:27:34;;;;;;;10.07;6.40;;;;;;;14.60;66.64;102141.94;5074629;28;20033;-62
2023/05/20 06:29:59;;;;;;;8.48;6.47;;;;;;;14.68;65.53;102149.53;5074318;28;20020;-63
2023/05/20 06:32:25;;;;;;;9.93;6.35;;;;;;;14.75;65.18;102141.00;5074327;28;20029;-62
2023/05/20 06:34:50;;;;;;;7.93;5.60;;;;;;;14.82;64.37;102125.44;5074304;28;20048;-62
2023/05/20 06:37:15;;;;;;;9.45;5.82;;;;;;;14.89;63.85;102133.97;5072452;28;20033;-63
2023/05/20 06:39:46;;;;;;;15.40;6.30;;;;;;;14.95;64.14;102133.59;5072880;28;20102;-62
2023/05/20 06:42:12;;;;;;;12.50;5.32;;;;;;;15.02;63.47;102131.41;5074140;28;20071;-62
2023/05/20 06:44:37;;;;;;;13.57;5.60;;;;;;;15.10;62.97;102127.31;5074396;28;20060;-62
2023/05/20 06:47:03;;;;;;;9.48;5.53;;;;;;;15.25;62.63;102130.84;5073749;28;20031;-62
2023/05/20 06:49:28;;;;;;;8.18;5.78;;;;;;;15.34;62.33;102127.59;5072779;28;20476;-62
2023/05/20 06:51:54;;;;;;;7.10;5.47;;;;;;;15.39;62.51;102130.00;5073299;28;20031;-62
2023/05/20 06:54:20;;;;;;;8.77;5.47;;;;;;;15.35;61.34;102096.28;5073973;28;20024;-62
2023/05/20 06:56:46;;;;;;;7.20;5.50;;;;;;;15.58;62.09;102117.13;5074067;28;20040;-62
2023/05/20 06:59:11;;;;;;;8.05;5.55;;;;;;;15.74;61.70;102125.09;5074158;28;20012;-62
2023/05/20 07:01:36;;;;;;;7.25;5.28;;;;;;;15.70;61.46;102115.50;5072444;28;20024;-62
2023/05/20 07:04:02;;;;;;;10.02;5.30;;;;;;;15.86;60.07;102120.75;5073706;28;20494;-62
2023/05/20 07:06:29;;;;;;;7.63;5.07;;;;;;;16.00;59.25;102118.03;5071847;28;20020;-62
2023/05/20 07:08:54;;;;;;;8.07;5.25;;;;;;;16.10;59.00;102118.28;5072140;28;20025;-62
2023/05/20 07:11:20;;;;;;;7.38;4.55;;;;;;;16.17;58.51;102106.16;5073432;28;20027;-62
2023/05/20 07:13:45;;;;;;;8.02;5.28;;;;;;;16.32;57.17;102113.22;5072882;28;20415;-62
2023/05/20 07:16:13;;;;;;;7.03;5.03;;;;;;;16.44;56.74;102116.03;5073270;28;20110;-62
2023/05/20 07:18:38;;;;;;;8.88;5.05;;;;;;;16.45;56.47;102112.41;5073470;28;20414;-62
2023/05/20 07:21:04;;;;;;;6.10;4.53;;;;;;;16.56;56.73;102113.38;5073012;28;20032;-62
2023/05/20 07:23:29;;;;;;;8.82;4.80;;;;;;;16.67;55.73;102117.16;5072715;28;20032;-62
2023/05/20 07:25:55;;;;;;;10.25;4.50;;;;;;;16.76;55.62;102116.53;5071968;28;20101;-62
2023/05/20 07:28:21;;;;;;;7.35;4.65;;;;;;;16.80;54.94;102101.94;5071636;28;20024;-62
2023/05/20 07:30:49;;;;;;;7.00;4.75;;;;;;;16.86;54.84;102112.28;5073095;28;20074;-62
2023/05/20 07:33:16;;;;;;;6.55;4.95;;;;;;;16.88;54.23;102109.47;5071617;28;20024;-62
2023/05/20 07:35:42;;;;;;;7.32;3.95;;;;;;;17.05;53.52;102105.59;5055391;28;20024;-62
2023/05/20 07:38:07;;;;;;;9.98;4.72;;;;;;;17.10;53.95;102100.78;5071221;28;20024;-62
2023/05/20 07:40:33;;;;;;;10.18;4.40;;;;;;;17.08;53.14;102095.50;5072983;28;20497;-61
2023/05/20 07:42:58;;;;;;;21.58;5.03;;;;;;;17.19;53.14;102105.50;5072764;28;20082;-62
2023/05/20 07:45:23;;;;;;;14.80;4.47;;;;;;;17.23;53.96;102091.69;5072950;28;20047;-62
2023/05/20 07:47:49;;;;;;;6.05;4.35;;;;;;;17.32;52.73;102092.03;5071353;28;20160;-62
2023/05/20 07:50:14;;;;;;;7.63;4.60;;;;;;;17.52;52.68;102107.59;5072692;28;20389;-62
2023/05/20 07:52:42;;;;;;;7.60;4.55;;;;;;;17.46;52.15;102098.13;5072209;28;20036;-62
2023/05/20 07:55:07;;;;;;;8.27;4.30;;;;;;;17.60;51.41;102094.44;5054957;28;20526;-62
2023/05/20 07:57:33;;;;;;;7.28;4.53;;;;;;;17.63;52.40;102096.91;5071350;28;20117;-62
2023/05/20 07:59:58;;;;;;;7.22;4.70;;;;;;;17.55;50.84;102052.69;5072772;28;20017;-62
2023/05/20 08:02:24;;;;;;;6.43;4.20;;;;;;;17.77;50.82;102082.44;5071183;28;20020;-62
2023/05/20 08:04:49;;;;;;;7.30;4.03;;;;;;;17.96;50.54;102081.13;5072509;28;20048;-62
2023/05/20 08:07:14;;;;;;;8.85;4.43;;;;;;;18.14;50.79;102083.28;5071712;28;20020;-62
2023/05/20 08:09:44;;;;;;;5.68;4.15;;;;;;;18.12;49.95;102087.09;5072626;28;20029;-61
2023/05/20 08:12:12;;;;;;;13.55;4.63;;;;;;;18.06;50.43;102083.00;5072427;28;20016;-62
2023/05/20 08:14:37;;;;;;;6.28;4.18;;;;;;;18.14;49.73;102077.03;5072453;28;20021;-62
2023/05/20 08:17:05;;;;;;;6.38;4.85;;;;;;;18.15;50.36;102086.84;5070851;28;20465;-61
2023/05/20 08:19:31;;;;;;;8.90;4.38;;;;;;;18.24;49.60;102070.00;5072771;28;20479;-62
2023/05/20 08:21:56;;;;;;;7.50;4.35;;;;;;;18.34;48.47;102079.06;5071564;28;20036;-61
2023/05/20 08:24:24;;;;;;;5.22;3.97;;;;;;;18.38;49.19;102085.06;5070873;28;20365;-62
2023/05/20 08:26:49;;;;;;;4.35;3.90;;;;;;;18.52;47.91;102078.63;5070093;28;20032;-62
2023/05/20 08:29:15;;;;;;;5.60;4.60;;;;;;;18.51;49.10;102061.63;5072037;28;20387;-62
2023/05/20 08:31:40;;;;;;;8.50;4.18;;;;;;;18.66;48.95;102064.09;5070737;28;20017;-62
2023/05/20 08:34:06;;;;;;;6.55;4.00;;;;;;;18.87;49.52;102065.13;5071758;28;20037;-62
2023/05/20 08:36:32;;;;;;;7.00;4.70;;;;;;;18.81;47.50;102066.47;5103683;28;20023;-62
2023/05/20 08:38:57;;;;;;;4.78;3.65;;;;;;;18.82;47.02;102064.63;5070673;28;20379;-62
2023/05/20 08:41:23;;;;;;;11.30;4.57;;;;;;;18.89;45.91;102062.34;5070123;28;20056;-62
2023/05/20 08:43:50;;;;;;;8.52;4.18;;;;;;;18.88;46.24;102047.97;5072028;28;20031;-62
2023/05/20 08:46:17;;;;;;;5.65;4.35;;;;;;;18.99;45.90;102047.13;5070497;28;20089;-62
2023/05/20 08:48:43;;;;;;;11.07;4.22;;;;;;;18.79;45.73;102051.41;5070345;28;20025;-62
2023/05/20 08:51:11;;;;;;;9.57;3.92;;;;;;;18.94;47.05;102054.72;5070775;28;20546;-61
2023/05/20 08:53:37;;;;;;;11.50;4.68;;;;;;;18.87;46.01;102043.56;5070127;28;20020;-61
2023/05/20 08:56:05;;;;;;;5.35;3.85;;;;;;;19.00;46.10;102051.53;5071817;28;20107;-62
2023/05/20 08:58:34;;;;;;;6.88;4.55;;;;;;;19.04;46.73;102051.19;5071899;28;20463;-62
2023/05/20 09:00:59;;;;;;;12.80;4.85;;;;;;;19.05;45.77;102052.88;5086923;28;20541;-61
2023/05/20 09:03:25;;;;;;;5.85;4.47;;;;;;;19.09;45.78;102056.22;5068515;28;20028;-62
2023/05/20 09:05:52;;;;;;;8.32;4.25;;;;;;;19.21;46.12;102055.22;5070813;28;20024;-62
2023/05/20 09:08:23;;;;;;;8.27;3.92;;;;;;;19.23;46.01;102045.16;5068875;28;20107;-62
2023/05/20 09:10:51;;;;;;;6.68;4.05;;;;;;;19.21;45.87;102047.16;5071561;28;20056;-62
2023/05/20 09:13:16;;;;;;;7.35;3.90;;;;;;;19.09;46.47;102047.25;5071576;28;20036;-62
2023/05/20 09:15:42;;;;;;;8.18;3.80;;;;;;;19.25;44.98;102040.50;5071487;28;20473;-61
2023/05/20 09:18:08;;;;;;;6.15;3.92;;;;;;;19.34;44.99;102047.00;5069939;28;20024;-62
2023/05/20 09:20:36;;;;;;;5.32;3.85;;;;;;;19.49;46.37;102026.00;5070586;28;20016;-62
2023/05/20 09:23:03;;;;;;;5.60;3.80;;;;;;;19.53;46.09;102040.97;5069844;28;20425;-62
2023/05/20 09:25:29;;;;;;;5.78;3.85;;;;;;;19.82;43.93;102029.63;5071253;28;20032;-61
2023/05/20 09:27:55;;;;;;;6.43;3.55;;;;;;;19.83;43.79;102045.72;5070803;28;20169;-62
2023/05/20 09:30:21;;;;;;;6.68;3.80;;;;;;;19.92;42.79;102034.13;5069822;28;20024;-62
2023/05/20 09:32:59;;;;;;;7.72;3.67;;;;;;;19.94;42.84;102037.56;5071190;28;20029;-62
2023/05/20 09:35:28;;;;;;;5.40;4.10;;;;;;;19.87;42.74;102047.16;5069696;28;20073;-62
2023/05/20 09:37:55;;;;;;;;;;;;;;;20.20;42.23;102032.63;5072763;28;20099;-62
2023/05/20 09:40:24;;;;;;;4.50;3.80;;;;;;;20.14;41.89;102032.31;5073638;28;20841;-61
2023/05/20 09:42:55;;;;;;;7.28;3.70;;;;;;;20.32;43.20;102019.94;5107395;28;20023;-62
2023/05/20 09:45:22;;;;;;;7.90;4.22;;;;;;;20.51;43.58;102038.13;5073516;28;20529;-62
2023/05/20 09:47:50;;;;;;;4.13;3.72;;;;;;;20.55;42.91;102031.50;5073714;28;20107;-62
2023/05/20 09:50:16;;;;;;;10.65;3.92;;;;;;;20.76;41.92;102033.31;5074461;28;20033;-62
2023/05/20 09:52:46;;;;;;;5.60;3.60;;;;;;;20.91;41.58;102039.22;5074826;28;20070;-62
2023/05/20 09:55:14;;;;;;;6.22;3.53;;;;;;;20.89;41.38;102035.81;5075089;28;20471;-61
2023/05/20 09:57:40;;;;;;;6.78;3.97;;;;;;;20.85;41.23;102028.00;5057476;28;20031;-62
2023/05/20 10:00:12;;;;;;;6.00;4.00;;;;;;;20.63;42.29;102039.81;5073630;28;20456;-62
2023/05/20 10:02:37;;;;;;;4.65;3.90;;;;;;;20.89;43.99;102019.59;5073174;28;20125;-62
2023/05/20 10:05:29;;;;;;;7.05;3.92;;;;;;;21.03;42.62;102022.78;5074842;28;20067;-62
2023/05/20 10:07:55;;;;;;;8.07;4.00;;;;;;;21.23;42.20;102020.13;5071932;28;20037;-62
2023/05/20 10:10:29;;;;;;;4.80;3.38;;;;;;;21.31;42.36;102015.75;5074666;28;20024;-62
2023/05/20 10:13:31;;;;;;;8.63;4.05;;;;;;;21.28;42.26;102010.63;5074683;28;20025;-62
2023/05/20 10:16:07;;;;;;;7.70;3.83;;;;;;;20.87;41.72;102007.03;5074048;28;20056;-62
2023/05/20 10:18:38;;;;;;;12.20;3.90;;;;;;;21.02;42.02;102002.13;5074581;28;20083;-62
2023/05/20 10:21:14;;;;;;;4.45;3.90;;;;;;;21.28;41.93;102001.66;5074539;28;20383;-62
2023/05/20 10:23:40;;;;;;;5.72;3.95;;;;;;;21.31;41.28;102001.38;5072480;28;20515;-62
2023/05/20 10:26:06;;;;;;;9.20;3.65;;;;;;;21.39;41.09;101992.59;5073132;28;20027;-61
2023/05/20 10:28:37;;;;;;;4.18;3.15;;;;;;;21.42;41.28;101995.88;5071387;28;20059;-62
2023/05/20 10:31:15;;;;;;;8.05;3.67;;;;;;;21.20;41.18;101991.50;5092489;28;20032;-62
2023/05/20 10:33:45;;;;;;;6.63;3.55;;;;;;;21.22;40.19;101986.81;5088099;28;20027;-62
2023/05/20 10:36:27;;;;;;;4.25;3.38;;;;;;;21.49;39.84;101985.34;5056821;28;20496;-62
2023/05/20 10:38:59;;;;;;;4.22;3.60;;;;;;;21.73;40.20;101980.34;5074029;28;20082;-62
2023/05/20 10:41:29;;;;;;;4.15;3.30;;;;;;;21.74;41.32;101976.69;5072585;28;20060;-62
2023/05/20 10:44:04;;;;;;;9.13;3.58;;;;;;;21.98;39.54;101978.09;5074159;28;20021;-62
2023/05/20 10:46:33;;;;;;;3.97;3.28;;;;;;;22.04;39.67;101958.56;5112710;27;20475;-62
2023/05/20 10:49:02;;;;;;;6.10;3.45;;;;;;;22.07;38.99;101974.53;5073361;28;20481;-62
2023/05/20 10:51:31;;;;;;;6.28;3.28;;;;;;;22.23;38.33;101971.22;5073411;28;20043;-62
2023/05/20 10:53:57;;;;;;;5.60;3.20;;;;;;;22.47;38.75;101975.31;5074011;28;20032;-62
2023/05/20 10:56:24;;;;;;;4.88;3.40;;;;;;;22.52;39.25;101971.16;5072494;28;20035;-62
2023/05/20 10:58:51;;;;;;;5.97;2.85;;;;;;;22.71;38.20;101972.09;5073447;28;20020;-62
2023/05/20 11:01:18;;;;;;;5.28;3.58;;;;;;;22.67;38.22;101975.09;5073478;28;20104;-62
2023/05/20 11:03:48;;;;;;;5.47;3.42;;;;;;;22.30;38.62;101969.66;5072303;28;20116;-62
2023/05/20 11:06:16;;;;;;;6.75;3.40;;;;;;;22.10;38.25;101955.25;5072372;28;20115;-62
2023/05/20 11:08:42;;;;;;;5.78;3.20;;;;;;;21.57;39.48;101965.69;5073252;28;20086;-62
2023/05/20 11:11:11;;;;;;;6.15;3.10;;;;;;;21.74;40.17;101949.59;5106235;28;20461;-62
2023/05/20 11:13:37;;;;;;;9.45;3.22;;;;;;;22.27;39.17;101966.41;5073629;28;20357;-62
2023/05/20 11:16:06;;;;;;;6.50;3.42;;;;;;;22.23;38.70;101953.09;5073347;28;20115;-62
2023/05/20 11:18:32;;;;;;;3.78;3.17;;;;;;;22.34;39.34;101954.81;5072059;28;20032;-62
2023/05/20 11:20:59;;;;;;;5.38;2.85;;;;;;;22.39;39.59;101944.38;5072171;28;20029;-62